createdAt,value
2018-12-19T00:01:23.273Z,28.90
2018-12-19T00:03:29.869Z,24.00
2018-12-19T00:05:37.021Z,24.77
2018-12-19T00:07:43.789Z,24.77
2018-12-19T00:09:50.601Z,29.00
2018-12-19T00:11:56.238Z,30.70
2018-12-19T00:14:02.392Z,29.83
2018-12-19T00:16:09.070Z,30.17
2018-12-19T00:18:16.650Z,24.87
2018-12-19T00:20:28.325Z,28.47
2018-12-19T00:22:34.990Z,24.57
2018-12-19T00:24:42.310Z,28.17
2018-12-19T00:26:46.941Z,28.87
2018-12-19T00:28:51.531Z,30.67
2018-12-19T00:30:56.275Z,29.30
2018-12-19T00:33:02.709Z,29.10
2018-12-19T00:35:08.205Z,28.20
2018-12-19T00:37:14.542Z,28.30
2018-12-19T00:39:22.156Z,29.37
2018-12-19T00:41:29.161Z,30.30
2018-12-19T00:43:35.533Z,32.73
2018-12-19T00:45:39.591Z,32.20
2018-12-19T00:47:47.786Z,34.10
2018-12-19T00:49:53.827Z,33.70
2018-12-19T00:52:00.010Z,32.10
2018-12-19T00:54:05.803Z,30.37
2018-12-19T00:56:11.065Z,27.67
2018-12-19T00:58:15.390Z,31.17
2018-12-19T01:00:19.797Z,31.33
2018-12-19T01:02:24.273Z,24.90
2018-12-19T01:04:28.602Z,29.33
2018-12-19T01:06:33.669Z,24.63
2018-12-19T01:08:41.141Z,27.90
2018-12-19T01:10:48.397Z,27.63
2018-12-19T01:12:55.050Z,26.00
2018-12-19T01:15:01.929Z,27.27
2018-12-19T01:17:12.454Z,21.47
2018-12-19T01:19:20.169Z,23.53
2018-12-19T01:21:27.297Z,22.47
2018-12-19T01:23:37.408Z,19.30
2018-12-19T01:25:44.906Z,18.27
2018-12-19T01:27:50.788Z,19.90
2018-12-19T01:29:58.026Z,19.83
2018-12-19T01:32:04.938Z,19.23
2018-12-19T01:34:12.426Z,18.93
2018-12-19T01:36:19.326Z,17.60
2018-12-19T01:38:26.355Z,21.37
2018-12-19T01:40:32.947Z,20.77
2018-12-19T01:42:38.433Z,14.47
2018-12-19T01:44:44.742Z,21.27
2018-12-19T01:46:51.255Z,19.03
2018-12-19T01:48:58.220Z,17.17
2018-12-19T01:51:04.785Z,21.30
2018-12-19T01:53:11.753Z,22.63
2018-12-19T01:55:17.677Z,16.63
2018-12-19T01:57:23.433Z,20.87
2018-12-19T01:59:29.014Z,16.90
2018-12-19T02:01:34.730Z,22.33
2018-12-19T02:03:40.253Z,22.10
2018-12-19T02:05:46.637Z,21.40
2018-12-19T02:07:54.046Z,22.67
2018-12-19T02:10:00.687Z,21.40
2018-12-19T02:12:07.662Z,22.40
2018-12-19T02:14:14.764Z,22.60
2018-12-19T02:16:23.146Z,19.83
2018-12-19T02:18:28.949Z,22.20
2018-12-19T02:20:35.401Z,18.03
2018-12-19T02:22:42.511Z,19.03
2018-12-19T02:24:49.418Z,15.90
2018-12-19T02:26:56.118Z,17.17
2018-12-19T02:29:01.705Z,22.33
2018-12-19T02:31:09.023Z,24.03
2018-12-19T02:33:15.103Z,22.57
2018-12-19T02:35:20.814Z,23.97
2018-12-19T02:37:27.901Z,22.80
2018-12-19T02:39:36.139Z,24.30
2018-12-19T02:41:39.785Z,23.33
2018-12-19T02:43:43.946Z,17.97
2018-12-19T02:45:48.795Z,19.93
2018-12-19T02:47:56.185Z,21.53
2018-12-19T02:50:00.926Z,25.90
2018-12-19T02:52:05.506Z,22.93
2018-12-19T02:54:09.789Z,20.13
2018-12-19T02:56:16.075Z,16.93
2018-12-19T02:58:21.747Z,21.40
2018-12-19T03:00:28.174Z,23.33
2018-12-19T03:02:35.149Z,22.23
2018-12-19T03:04:41.643Z,24.50
2018-12-19T03:06:47.209Z,24.13
2018-12-19T03:08:55.243Z,23.83
2018-12-19T03:11:01.046Z,19.23
2018-12-19T03:13:08.749Z,19.13
2018-12-19T03:15:14.794Z,20.13
2018-12-19T03:17:21.737Z,20.33
2018-12-19T03:19:27.173Z,19.93
2018-12-19T03:21:33.230Z,20.60
2018-12-19T03:23:40.010Z,21.37
2018-12-19T03:25:46.325Z,19.87
2018-12-19T03:27:52.177Z,17.47
2018-12-19T03:29:57.394Z,22.70
2018-12-19T03:32:04.026Z,21.80
2018-12-19T03:34:10.798Z,16.67
2018-12-19T03:36:20.429Z,14.70
2018-12-19T03:38:27.476Z,15.80
2018-12-19T03:40:33.134Z,19.83
2018-12-19T03:42:39.659Z,14.33
2018-12-19T03:44:45.277Z,12.93
2018-12-19T03:46:51.445Z,19.70
2018-12-19T03:48:58.092Z,11.93
2018-12-19T03:51:04.170Z,19.20
2018-12-19T03:53:10.321Z,19.20
2018-12-19T03:55:17.294Z,17.30
2018-12-19T03:57:24.094Z,22.43
2018-12-19T03:59:30.378Z,21.90
2018-12-19T04:01:37.493Z,18.27
2018-12-19T04:03:42.949Z,18.97
2018-12-19T04:05:48.761Z,18.83
2018-12-19T04:07:55.694Z,21.63
2018-12-19T04:10:02.683Z,12.27
2018-12-19T04:12:09.056Z,21.03
2018-12-19T04:14:15.978Z,23.10
2018-12-19T04:16:22.228Z,23.83
2018-12-19T04:18:28.431Z,20.73
2018-12-19T04:20:35.317Z,21.97
2018-12-19T04:22:41.541Z,24.73
2018-12-19T04:24:48.157Z,25.37
2018-12-19T04:26:55.210Z,23.47
2018-12-19T04:29:02.262Z,21.23
2018-12-19T04:31:09.582Z,20.37
2018-12-19T04:33:15.656Z,26.57
2018-12-19T04:35:22.257Z,26.80
2018-12-19T04:37:28.322Z,27.03
2018-12-19T04:39:34.325Z,26.87
2018-12-19T04:41:41.171Z,22.43
2018-12-19T04:43:49.357Z,17.97
2018-12-19T04:45:56.430Z,26.63
2018-12-19T04:48:02.388Z,25.00
2018-12-19T04:50:08.689Z,24.30
2018-12-19T04:52:13.604Z,27.47
2018-12-19T04:54:17.393Z,27.33
2018-12-19T04:56:22.624Z,28.87
2018-12-19T04:58:29.418Z,21.23
2018-12-19T05:00:37.974Z,28.20
2018-12-19T05:02:43.381Z,18.33
2018-12-19T05:04:50.891Z,14.17
2018-12-19T05:07:00.013Z,29.63
2018-12-19T05:09:08.813Z,21.50
2018-12-19T05:11:15.305Z,19.17
2018-12-19T05:13:22.535Z,25.03
2018-12-19T05:15:30.801Z,26.03
2018-12-19T05:17:36.827Z,24.10
2018-12-19T05:19:42.820Z,26.30
2018-12-19T05:21:48.778Z,15.07
2018-12-19T05:23:55.099Z,23.17
2018-12-19T05:26:01.629Z,19.67
2018-12-19T05:28:06.217Z,21.23
2018-12-19T05:30:13.706Z,15.63
2018-12-19T05:32:19.797Z,21.47
2018-12-19T05:34:26.103Z,17.70
2018-12-19T05:36:32.494Z,19.63
2018-12-19T05:38:39.706Z,16.93
2018-12-19T05:40:46.486Z,21.60
2018-12-19T05:42:53.503Z,20.73
2018-12-19T05:44:58.767Z,20.60
2018-12-19T05:47:04.905Z,18.93
2018-12-19T05:49:11.847Z,19.87
2018-12-19T05:51:19.082Z,15.33
2018-12-19T05:53:26.125Z,19.47
2018-12-19T05:55:31.340Z,21.63
2018-12-19T05:57:38.826Z,19.23
2018-12-19T05:59:45.769Z,18.17
2018-12-19T06:01:52.746Z,15.83
2018-12-19T06:03:58.793Z,18.53
2018-12-19T06:06:04.078Z,14.90
2018-12-19T06:08:13.648Z,12.77
2018-12-19T06:10:26.027Z,19.47
2018-12-19T06:12:29.009Z,16.23
2018-12-19T06:14:36.022Z,19.03
2018-12-19T06:16:44.617Z,17.97
2018-12-19T06:18:50.729Z,19.83
2018-12-19T06:20:58.057Z,16.03
2018-12-19T06:23:04.910Z,21.73
2018-12-19T06:25:12.008Z,19.20
2018-12-19T06:27:18.317Z,20.60
2018-12-19T06:29:23.197Z,15.87
2018-12-19T06:31:30.033Z,18.63
2018-12-19T06:33:37.322Z,19.07
2018-12-19T06:35:43.324Z,16.03
2018-12-19T06:37:49.802Z,19.30
2018-12-19T06:39:55.529Z,17.13
2018-12-19T06:42:00.321Z,21.40
2018-12-19T06:44:06.651Z,16.67
2018-12-19T06:46:14.070Z,19.60
2018-12-19T06:48:20.265Z,21.87
2018-12-19T06:50:25.834Z,21.00
2018-12-19T06:52:32.187Z,21.70
2018-12-19T06:54:37.941Z,22.67
2018-12-19T06:56:44.394Z,18.37
2018-12-19T06:58:48.682Z,19.00
2018-12-19T07:00:53.326Z,15.43
2018-12-19T07:02:58.251Z,18.20
2018-12-19T07:05:05.234Z,14.13
2018-12-19T07:07:11.401Z,21.13
2018-12-19T07:09:18.538Z,20.23
2018-12-19T07:11:24.965Z,17.17
2018-12-19T07:13:31.327Z,17.27
2018-12-19T07:15:40.105Z,20.20
2018-12-19T07:17:48.159Z,20.77
2018-12-19T07:19:55.252Z,13.30
2018-12-19T07:22:01.019Z,15.77
2018-12-19T07:24:07.498Z,12.73
2018-12-19T07:26:12.997Z,11.87
2018-12-19T07:28:19.658Z,17.43
2018-12-19T07:30:26.734Z,18.47
2018-12-19T07:32:34.035Z,15.73
2018-12-19T07:34:44.144Z,15.83
2018-12-19T07:36:47.181Z,13.47
2018-12-19T07:38:56.087Z,15.20
2018-12-19T07:41:02.590Z,15.07
2018-12-19T07:43:06.981Z,16.77
2018-12-19T07:45:13.093Z,15.27
2018-12-19T07:47:19.631Z,16.27
2018-12-19T07:49:25.979Z,16.57
2018-12-19T07:51:32.142Z,17.23
2018-12-19T07:53:39.405Z,17.07
2018-12-19T07:55:44.751Z,11.67
2018-12-19T07:57:51.342Z,13.27
2018-12-19T07:59:56.415Z,16.20
2018-12-19T08:02:02.831Z,14.67
2018-12-19T08:04:09.327Z,14.60
2018-12-19T08:06:16.046Z,15.17
2018-12-19T08:08:22.411Z,13.60
2018-12-19T08:10:28.212Z,14.60
2018-12-19T08:12:36.179Z,11.33
2018-12-19T08:14:42.147Z,12.43
2018-12-19T08:16:51.413Z,11.97
2018-12-19T08:18:57.794Z,11.80
2018-12-19T08:21:03.694Z,9.97
2018-12-19T08:23:10.088Z,13.07
2018-12-19T08:25:15.746Z,14.17
2018-12-19T08:27:24.802Z,10.67
2018-12-19T08:29:30.429Z,12.70
2018-12-19T08:31:36.349Z,11.60
2018-12-19T08:33:44.085Z,10.67
2018-12-19T08:35:51.500Z,8.80
2018-12-19T08:38:02.091Z,11.97
2018-12-19T08:40:09.673Z,10.50
2018-12-19T08:42:16.015Z,11.03
2018-12-19T08:44:24.419Z,9.60
2018-12-19T08:46:32.458Z,12.13
2018-12-19T08:48:39.018Z,9.07
2018-12-19T08:50:44.967Z,8.63
2018-12-19T08:52:50.862Z,8.17
2018-12-19T08:54:55.454Z,12.90
2018-12-19T08:57:00.122Z,8.50
2018-12-19T08:59:05.833Z,8.07
2018-12-19T09:01:12.165Z,11.13
2018-12-19T09:03:16.657Z,12.93
2018-12-19T09:05:22.219Z,12.03
2018-12-19T09:07:28.558Z,13.07
2018-12-19T09:09:37.321Z,13.90
2018-12-19T09:11:44.138Z,11.93
2018-12-19T09:13:52.746Z,10.50
2018-12-19T09:16:02.917Z,12.17
2018-12-19T09:18:09.358Z,11.00
2018-12-19T09:20:14.427Z,13.40
2018-12-19T09:22:21.358Z,11.00
2018-12-19T09:24:27.349Z,11.70
2018-12-19T09:26:31.639Z,12.27
2018-12-19T09:28:37.103Z,14.77
2018-12-19T09:30:43.806Z,12.93
2018-12-19T09:32:49.618Z,16.30
2018-12-19T09:34:55.789Z,13.63
2018-12-19T09:37:01.177Z,16.57
2018-12-19T09:39:08.138Z,10.13
2018-12-19T09:41:13.134Z,14.30
2018-12-19T09:43:17.766Z,17.17
2018-12-19T09:45:21.838Z,13.67
2018-12-19T09:47:26.209Z,17.50
2018-12-19T09:49:33.034Z,12.23
2018-12-19T09:51:39.781Z,14.03
2018-12-19T09:53:46.669Z,18.60
2018-12-19T09:55:52.213Z,17.13
2018-12-19T09:57:58.570Z,14.80
2018-12-19T10:00:03.989Z,19.00
2018-12-19T10:02:13.977Z,13.20
2018-12-19T10:04:20.553Z,13.40
2018-12-19T10:06:24.334Z,9.57
2018-12-19T10:08:28.974Z,17.63
2018-12-19T10:10:37.398Z,16.10
2018-12-19T10:12:42.921Z,13.83
2018-12-19T10:14:47.531Z,14.50
2018-12-19T10:16:54.482Z,14.17
2018-12-19T10:19:00.330Z,19.77
2018-12-19T10:21:06.815Z,15.50
2018-12-19T10:23:12.458Z,18.33
2018-12-19T10:25:16.886Z,17.17
2018-12-19T10:27:21.836Z,18.27
2018-12-19T10:29:25.981Z,15.37
2018-12-19T10:31:32.045Z,18.70
2018-12-19T10:33:36.665Z,14.60
2018-12-19T10:35:41.521Z,12.17
2018-12-19T10:37:47.514Z,17.80
2018-12-19T10:39:55.264Z,16.93
2018-12-19T10:42:01.237Z,16.63
2018-12-19T10:44:07.230Z,19.23
2018-12-19T10:46:11.547Z,11.50
2018-12-19T10:48:20.682Z,15.40
2018-12-19T10:50:27.101Z,16.97
2018-12-19T10:52:33.941Z,20.73
2018-12-19T10:54:41.737Z,20.43
2018-12-19T10:56:51.786Z,16.80
2018-12-19T10:58:57.013Z,19.40
2018-12-19T11:01:04.011Z,20.23
2018-12-19T11:03:14.912Z,18.87
2018-12-19T11:05:21.964Z,20.63
2018-12-19T11:07:27.853Z,19.70
2018-12-19T11:09:33.206Z,19.33
2018-12-19T11:11:39.602Z,15.90
2018-12-19T11:13:46.945Z,21.57
2018-12-19T11:15:53.322Z,16.90
2018-12-19T11:17:58.689Z,21.57
2018-12-19T11:20:05.835Z,19.63
2018-12-19T11:22:12.911Z,19.27
2018-12-19T11:24:19.823Z,21.03
2018-12-19T11:26:27.359Z,21.90
2018-12-19T11:28:32.145Z,20.50
2018-12-19T11:30:36.421Z,21.07
2018-12-19T11:32:41.965Z,22.17
2018-12-19T11:34:47.285Z,21.03
2018-12-19T11:36:51.901Z,23.70
2018-12-19T11:38:56.144Z,14.33
2018-12-19T11:41:00.535Z,23.87
2018-12-19T11:43:05.152Z,19.00
2018-12-19T11:45:11.698Z,24.00
2018-12-19T11:47:17.489Z,21.83
2018-12-19T11:49:26.500Z,19.20
2018-12-19T11:51:33.391Z,20.40
2018-12-19T11:53:40.204Z,14.87
2018-12-19T11:55:46.316Z,23.87
2018-12-19T11:57:53.386Z,16.60
2018-12-19T11:59:57.909Z,21.50
2018-12-19T12:02:02.986Z,19.10
2018-12-19T12:04:09.641Z,18.60
2018-12-19T12:06:18.256Z,24.83
2018-12-19T12:08:23.583Z,21.70
2018-12-19T12:10:30.311Z,23.10
2018-12-19T12:12:36.173Z,19.93
2018-12-19T12:14:42.474Z,22.53
2018-12-19T12:16:48.646Z,19.57
2018-12-19T12:18:54.571Z,24.80
2018-12-19T12:21:01.115Z,26.07
2018-12-19T12:23:06.020Z,24.90
2018-12-19T12:25:11.753Z,26.43
2018-12-19T12:27:19.402Z,23.20
2018-12-19T12:29:25.273Z,24.07
2018-12-19T12:31:31.450Z,23.80
2018-12-19T12:33:37.898Z,22.50
2018-12-19T12:35:43.139Z,19.63
2018-12-19T12:37:49.006Z,22.03
2018-12-19T12:39:54.842Z,20.40
2018-12-19T12:42:00.131Z,19.63
2018-12-19T12:44:06.443Z,23.37
2018-12-19T12:46:16.106Z,25.30
2018-12-19T12:48:22.934Z,25.70
2018-12-19T12:50:33.956Z,22.87
2018-12-19T12:52:39.754Z,25.13
2018-12-19T12:54:46.927Z,24.80
2018-12-19T12:56:55.049Z,14.73
2018-12-19T12:59:00.738Z,20.50
2018-12-19T13:01:07.657Z,26.07
2018-12-19T13:03:13.842Z,22.83
2018-12-19T13:05:22.458Z,15.10
2018-12-19T13:07:28.073Z,18.23
2018-12-19T13:09:31.715Z,24.93
2018-12-19T13:11:36.431Z,20.97
2018-12-19T13:13:43.286Z,19.57
2018-12-19T13:15:50.089Z,25.13
2018-12-19T13:17:57.270Z,14.27
2018-12-19T13:20:03.599Z,23.83
2018-12-19T13:22:09.997Z,17.80
2018-12-19T13:24:16.044Z,21.67
2018-12-19T13:26:21.093Z,13.33
2018-12-19T13:28:26.378Z,26.03
2018-12-19T13:30:33.161Z,27.40
2018-12-19T13:32:38.393Z,28.47
2018-12-19T13:34:43.693Z,20.77
2018-12-19T13:36:50.597Z,28.83
2018-12-19T13:38:58.170Z,25.30
2018-12-19T13:41:04.585Z,27.67
2018-12-19T13:43:12.290Z,21.10
2018-12-19T13:45:18.428Z,21.27
2018-12-19T13:47:29.438Z,14.77
2018-12-19T13:49:35.662Z,28.83
2018-12-19T13:51:41.492Z,23.60
2018-12-19T13:53:48.398Z,24.47
2018-12-19T13:55:54.237Z,20.60
2018-12-19T13:58:06.909Z,16.03
2018-12-19T14:00:10.153Z,29.43
2018-12-19T14:02:17.262Z,27.50
2018-12-19T14:04:22.927Z,15.83
2018-12-19T14:06:29.328Z,22.13
2018-12-19T14:08:35.562Z,30.43
2018-12-19T14:10:45.825Z,28.67
2018-12-19T14:12:52.362Z,27.90
2018-12-19T14:14:59.209Z,30.73
2018-12-19T14:17:04.665Z,27.23
2018-12-19T14:19:11.626Z,30.57
2018-12-19T14:21:18.030Z,30.10
2018-12-19T14:23:25.482Z,28.77
2018-12-19T14:25:33.226Z,31.73
2018-12-19T14:27:40.654Z,22.80
2018-12-19T14:29:46.863Z,31.93
2018-12-19T14:31:52.685Z,29.90
2018-12-19T14:33:57.751Z,31.07
2018-12-19T14:36:02.671Z,25.27
2018-12-19T14:38:07.021Z,31.07
2018-12-19T14:40:13.509Z,33.73
2018-12-19T14:42:19.255Z,33.17
2018-12-19T14:44:25.865Z,33.87
2018-12-19T14:46:37.618Z,23.87
2018-12-19T14:48:44.042Z,30.40
2018-12-19T14:50:48.109Z,33.50
2018-12-19T14:52:55.184Z,28.40
2018-12-19T14:55:01.049Z,29.20
2018-12-19T14:57:07.914Z,26.23
2018-12-19T14:59:13.139Z,31.00
2018-12-19T15:01:17.949Z,33.33
2018-12-19T15:03:24.941Z,34.93
2018-12-19T15:05:31.654Z,35.60
2018-12-19T15:07:40.627Z,32.30
2018-12-19T15:09:47.065Z,27.07
2018-12-19T15:11:52.942Z,32.07
2018-12-19T15:14:03.163Z,32.03
2018-12-19T15:16:09.011Z,35.50
2018-12-19T15:20:34.082Z,34.50
2018-12-19T15:22:49.987Z,30.50
2018-12-19T15:25:01.514Z,36.47
2018-12-19T15:27:08.247Z,24.13
2018-12-19T15:29:18.361Z,32.93
2018-12-19T15:31:32.014Z,34.30
2018-12-19T15:33:38.761Z,36.83
2018-12-19T15:36:13.727Z,34.27
2018-12-19T15:38:33.697Z,29.83
2018-12-19T15:40:48.653Z,24.90
2018-12-19T15:43:10.257Z,32.30
2018-12-19T15:45:19.588Z,35.07
2018-12-19T15:47:24.676Z,28.10
2018-12-19T15:49:31.609Z,33.37
2018-12-19T15:51:37.637Z,37.80
2018-12-19T15:53:42.771Z,34.27
2018-12-19T15:55:51.644Z,33.57
2018-12-19T15:57:58.084Z,31.90
2018-12-19T16:00:05.542Z,35.73
2018-12-19T16:02:15.135Z,37.73
2018-12-19T16:04:20.969Z,39.23
2018-12-19T16:06:26.250Z,39.87
2018-12-19T16:08:31.618Z,38.53
2018-12-19T16:10:37.855Z,35.90
2018-12-19T16:12:43.822Z,40.97
2018-12-19T16:14:50.164Z,33.93
2018-12-19T16:16:58.861Z,32.20
2018-12-19T16:19:07.046Z,20.83
2018-12-19T16:21:13.965Z,37.57
2018-12-19T16:23:22.222Z,38.63
2018-12-19T16:25:34.005Z,39.37
2018-12-19T16:27:41.008Z,41.30
2018-12-19T16:29:48.107Z,38.00
2018-12-19T16:31:55.563Z,40.60
2018-12-19T16:34:03.030Z,41.57
2018-12-19T16:36:09.162Z,24.33
2018-12-19T16:38:18.454Z,40.40
2018-12-19T16:40:24.778Z,32.27
2018-12-19T16:42:29.476Z,34.27
2018-12-19T16:44:40.840Z,39.63
2018-12-19T16:46:48.146Z,36.60
2018-12-19T16:48:55.278Z,41.03
2018-12-19T16:51:05.043Z,40.60
2018-12-19T16:53:12.127Z,43.30
2018-12-19T16:55:19.832Z,40.83
2018-12-19T16:57:26.397Z,41.03
2018-12-19T16:59:30.772Z,32.50
2018-12-19T17:01:48.428Z,23.80
2018-12-19T17:03:55.479Z,30.37
2018-12-19T17:06:14.594Z,41.20
2018-12-19T17:08:26.861Z,38.97
2018-12-19T17:10:31.569Z,40.73
2018-12-19T17:12:38.857Z,36.27
2018-12-19T17:14:46.349Z,36.83
2018-12-19T17:16:54.248Z,36.70
2018-12-19T17:19:03.879Z,39.90
2018-12-19T17:21:10.762Z,39.63
2018-12-19T17:23:17.758Z,37.00
2018-12-19T17:25:24.054Z,40.13
2018-12-19T17:27:31.819Z,39.07
2018-12-19T17:29:39.862Z,38.63
2018-12-19T17:31:51.611Z,41.93
2018-12-19T17:33:59.310Z,42.40
2018-12-19T17:36:06.202Z,36.93
2018-12-19T17:38:14.929Z,33.60
2018-12-19T17:40:21.628Z,37.83
2018-12-19T17:42:28.682Z,39.87
2018-12-19T17:44:36.314Z,39.33
2018-12-19T17:46:43.562Z,41.43
2018-12-19T17:48:58.369Z,41.40
2018-12-19T17:51:19.618Z,38.63
2018-12-19T17:53:30.319Z,39.67
2018-12-19T17:55:41.296Z,40.93
2018-12-19T17:57:48.443Z,32.23
2018-12-19T17:59:59.024Z,36.33
2018-12-19T18:02:06.995Z,28.43
2018-12-19T18:04:15.119Z,38.17
2018-12-19T18:06:22.389Z,40.27
2018-12-19T18:08:31.215Z,38.73
2018-12-19T18:10:38.253Z,29.30
2018-12-19T18:12:45.585Z,41.00
2018-12-19T18:14:52.958Z,39.70
2018-12-19T18:17:08.582Z,39.37
2018-12-19T18:19:23.383Z,40.13
2018-12-19T18:21:35.808Z,40.33
2018-12-19T18:23:57.508Z,36.23
2018-12-19T18:26:15.693Z,40.87
2018-12-19T18:28:23.238Z,39.97
2018-12-19T18:30:41.604Z,39.23
2018-12-19T18:32:50.822Z,39.60
2018-12-19T18:35:01.987Z,35.90
2018-12-19T18:37:09.207Z,37.07
2018-12-19T18:39:17.357Z,36.27
2018-12-19T18:41:24.198Z,39.57
2018-12-19T18:43:32.820Z,42.03
2018-12-19T18:45:41.112Z,43.60
2018-12-19T18:47:49.909Z,43.00
2018-12-19T18:49:58.300Z,42.90
2018-12-19T18:52:11.766Z,43.13
2018-12-19T18:54:22.308Z,34.93
2018-12-19T18:56:30.141Z,44.13
2018-12-19T18:58:37.279Z,45.57
2018-12-19T19:00:46.507Z,43.50
2018-12-19T19:02:54.144Z,46.37
2018-12-19T19:05:01.159Z,47.27
2018-12-19T19:09:22.133Z,40.73
2018-12-19T19:11:29.740Z,48.80
2018-12-19T19:13:39.002Z,44.17
2018-12-19T19:15:46.138Z,49.17
2018-12-19T19:17:54.396Z,42.13
2018-12-19T19:20:01.408Z,51.67
2018-12-19T19:22:11.058Z,44.53
2018-12-19T19:24:18.414Z,43.97
2018-12-19T19:26:24.314Z,50.17
2018-12-19T19:28:33.554Z,50.57
2018-12-19T19:30:41.487Z,49.77
2018-12-19T19:32:48.912Z,36.50
2018-12-19T19:34:57.289Z,45.73
2018-12-19T19:37:05.375Z,45.67
2018-12-19T19:39:13.007Z,50.33
2018-12-19T19:41:20.395Z,30.00
2018-12-19T19:43:27.378Z,41.97
2018-12-19T19:45:35.596Z,32.83
2018-12-19T19:47:42.197Z,29.77
2018-12-19T19:49:50.899Z,31.07
2018-12-19T19:52:01.573Z,37.17
2018-12-19T19:54:09.284Z,38.97
2018-12-19T19:56:16.559Z,27.47
2018-12-19T19:58:23.285Z,35.30
2018-12-19T20:00:35.687Z,27.23
2018-12-19T20:02:42.654Z,40.23
2018-12-19T20:04:47.798Z,39.43
2018-12-19T20:06:59.359Z,41.43
2018-12-19T20:09:05.001Z,39.07
2018-12-19T20:11:14.528Z,39.30
2018-12-19T20:13:22.536Z,37.80
2018-12-19T20:15:28.954Z,33.80
2018-12-19T20:17:39.600Z,34.00
2018-12-19T20:19:44.811Z,30.57
2018-12-19T20:21:56.274Z,30.07
2018-12-19T20:24:02.109Z,35.73
2018-12-19T20:26:07.833Z,25.63
2018-12-19T20:28:12.878Z,31.57
2018-12-19T20:30:19.649Z,26.03
2018-12-19T20:32:28.029Z,29.77
2018-12-19T20:34:35.822Z,27.43
2018-12-19T20:36:41.582Z,28.73
2018-12-19T20:38:45.787Z,32.97
2018-12-19T20:40:52.055Z,27.97
2018-12-19T20:45:14.410Z,31.10
2018-12-19T20:47:24.522Z,28.23
2018-12-19T20:49:33.423Z,30.43
2018-12-19T20:51:41.731Z,32.37
2018-12-19T20:53:49.973Z,33.83
2018-12-19T20:56:03.708Z,33.17
2018-12-19T20:58:11.707Z,28.93
2018-12-19T21:00:20.530Z,30.73
2018-12-19T21:02:29.296Z,31.17
2018-12-19T21:04:39.502Z,21.37
2018-12-19T21:06:48.804Z,25.43
2018-12-19T21:08:57.820Z,23.67
2018-12-19T21:11:07.030Z,21.57
2018-12-19T21:13:19.651Z,19.27
2018-12-19T21:15:26.904Z,19.00
2018-12-19T21:17:36.254Z,19.63
2018-12-19T21:19:43.495Z,22.73
2018-12-19T21:21:55.300Z,22.57
2018-12-19T21:24:04.389Z,20.47
2018-12-19T21:26:12.041Z,24.13
2018-12-19T21:28:20.464Z,22.43
2018-12-19T21:30:28.882Z,22.50
2018-12-19T21:32:36.079Z,23.50
2018-12-19T21:34:44.022Z,23.73
2018-12-19T21:36:51.333Z,24.17
2018-12-19T21:38:56.399Z,20.00
2018-12-19T21:41:02.292Z,22.60
2018-12-19T21:43:11.947Z,23.80
2018-12-19T21:45:19.032Z,21.87
2018-12-19T21:47:26.607Z,20.93
2018-12-19T21:49:33.252Z,22.77
2018-12-19T21:51:41.004Z,21.13
2018-12-19T21:53:48.229Z,24.13
2018-12-19T21:55:55.544Z,23.07
2018-12-19T21:58:03.300Z,23.37
2018-12-19T22:00:13.209Z,22.37
2018-12-19T22:02:20.043Z,23.53
2018-12-19T22:04:37.253Z,23.43
2018-12-19T22:06:45.302Z,23.43
2018-12-19T22:08:52.160Z,23.20
2018-12-19T22:11:01.504Z,22.07
2018-12-19T22:13:09.717Z,23.00
2018-12-19T22:15:21.365Z,22.93
2018-12-19T22:17:33.053Z,23.70
2018-12-19T22:19:43.271Z,21.97
2018-12-19T22:21:50.654Z,25.83
2018-12-19T22:23:58.148Z,24.73
2018-12-19T22:26:10.981Z,22.60
2018-12-19T22:28:19.015Z,24.53
2018-12-19T22:30:28.880Z,23.70
2018-12-19T22:32:36.405Z,24.70
2018-12-19T22:34:42.866Z,23.90
2018-12-19T22:36:49.928Z,23.23
2018-12-19T22:38:56.801Z,24.47
2018-12-19T22:41:06.027Z,23.33
2018-12-19T22:43:11.888Z,24.67
2018-12-19T22:45:19.199Z,22.37
2018-12-19T22:47:26.136Z,23.67
2018-12-19T22:49:34.121Z,22.47
2018-12-19T22:51:41.290Z,23.57
2018-12-19T22:53:49.588Z,22.27
2018-12-19T22:55:56.290Z,22.50
2018-12-19T22:58:02.914Z,19.20
2018-12-19T23:00:16.496Z,23.17
2018-12-19T23:02:27.606Z,21.77
2018-12-19T23:04:32.410Z,22.70
2018-12-19T23:06:38.363Z,20.80
2018-12-19T23:08:48.946Z,21.20
2018-12-19T23:10:59.723Z,20.83
2018-12-19T23:13:08.020Z,22.07
2018-12-19T23:15:13.792Z,21.73
2018-12-19T23:17:23.663Z,21.17
2018-12-19T23:19:34.836Z,21.90
2018-12-19T23:21:46.713Z,21.50
2018-12-19T23:23:53.130Z,21.33
2018-12-19T23:25:59.544Z,20.40
2018-12-19T23:28:11.332Z,21.20
2018-12-19T23:30:22.817Z,20.13
2018-12-19T23:32:33.048Z,21.90
2018-12-19T23:34:40.570Z,21.50
2018-12-19T23:36:50.844Z,21.03
2018-12-19T23:38:57.674Z,22.30
2018-12-19T23:41:04.019Z,21.87
2018-12-19T23:43:09.689Z,21.17
2018-12-19T23:45:16.105Z,21.47
2018-12-19T23:47:20.837Z,22.67
2018-12-19T23:49:25.866Z,22.73
2018-12-19T23:51:31.757Z,22.40
2018-12-19T23:53:38.731Z,22.77
2018-12-19T23:55:45.001Z,22.30
2018-12-19T23:57:49.573Z,24.17
2018-12-19T23:59:54.331Z,24.07
